createdAt,value
2022-11-27T00:01:34.403Z,89.74
2022-11-27T00:04:04.328Z,89.84
2022-11-27T00:06:32.124Z,88.96
2022-11-27T00:09:03.591Z,89.89
2022-11-27T00:11:33.934Z,89.22
2022-11-27T00:14:05.392Z,89.60
2022-11-27T00:16:32.834Z,89.57
2022-11-27T00:19:02.067Z,89.96
2022-11-27T00:21:31.149Z,90.06
2022-11-27T00:23:59.975Z,90.01
2022-11-27T00:26:30.880Z,89.67
2022-11-27T00:29:01.131Z,89.91
2022-11-27T00:31:32.565Z,89.98
2022-11-27T00:34:03.587Z,91.11
2022-11-27T00:36:34.969Z,90.80
2022-11-27T00:39:03.791Z,90.00
2022-11-27T00:41:30.894Z,91.54
2022-11-27T00:43:58.342Z,91.97
2022-11-27T00:46:29.054Z,91.00
2022-11-27T00:48:57.709Z,90.76
2022-11-27T00:51:27.519Z,90.16
2022-11-27T00:53:54.624Z,89.93
2022-11-27T00:56:27.047Z,90.11
2022-11-27T00:58:54.192Z,91.94
2022-11-27T01:01:27.526Z,91.87
2022-11-27T01:03:56.032Z,91.35
2022-11-27T01:06:23.218Z,91.06
2022-11-27T01:08:52.266Z,91.66
2022-11-27T01:11:21.693Z,91.64
2022-11-27T01:13:49.061Z,91.11
2022-11-27T01:16:19.761Z,90.80
2022-11-27T01:18:50.751Z,91.36
2022-11-27T01:21:20.010Z,90.81
2022-11-27T01:23:46.725Z,90.25
2022-11-27T01:26:13.444Z,90.35
2022-11-27T01:28:47.917Z,90.27
2022-11-27T01:31:20.077Z,90.10
2022-11-27T01:33:47.534Z,89.07
2022-11-27T01:36:18.942Z,88.71
2022-11-27T01:38:47.854Z,88.12
2022-11-27T01:41:20.505Z,88.86
2022-11-27T01:44:02.196Z,89.55
2022-11-27T01:46:28.672Z,89.36
2022-11-27T01:49:02.559Z,89.98
2022-11-27T01:51:31.206Z,90.04
2022-11-27T01:54:00.452Z,90.53
2022-11-27T01:56:28.158Z,90.07
2022-11-27T01:58:59.599Z,90.13
2022-11-27T02:01:26.457Z,90.01
2022-11-27T02:04:01.868Z,89.81
2022-11-27T02:06:29.171Z,89.49
2022-11-27T02:08:56.882Z,89.61
2022-11-27T02:11:56.836Z,90.38
2022-11-27T02:14:38.631Z,89.77
2022-11-27T02:17:11.437Z,89.69
2022-11-27T02:19:50.225Z,89.31
2022-11-27T02:22:43.762Z,89.95
2022-11-27T02:25:28.739Z,89.35
2022-11-27T02:28:41.391Z,90.24
2022-11-27T02:31:25.771Z,90.34
2022-11-27T02:33:58.128Z,90.21
2022-11-27T02:36:30.247Z,89.94
2022-11-27T02:39:05.431Z,89.94
2022-11-27T02:41:59.657Z,89.60
2022-11-27T02:44:31.827Z,89.08
2022-11-27T02:47:01.310Z,88.90
2022-11-27T02:49:28.233Z,88.91
2022-11-27T02:52:02.382Z,88.93
2022-11-27T02:54:31.114Z,89.35
2022-11-27T02:57:07.193Z,89.75
2022-11-27T02:59:36.909Z,90.26
2022-11-27T03:02:19.452Z,90.19
2022-11-27T03:04:52.252Z,90.02
2022-11-27T03:07:28.197Z,89.70
2022-11-27T03:10:01.141Z,89.91
2022-11-27T03:12:29.964Z,90.43
2022-11-27T03:14:56.958Z,90.19
2022-11-27T03:17:35.827Z,90.14
2022-11-27T03:20:12.213Z,89.72
2022-11-27T03:22:39.156Z,89.81
2022-11-27T03:25:06.101Z,89.73
2022-11-27T03:27:38.888Z,90.04
2022-11-27T03:30:08.112Z,89.33
2022-11-27T03:32:34.991Z,89.79
2022-11-27T03:35:07.167Z,89.93
2022-11-27T03:37:33.835Z,89.85
2022-11-27T03:40:03.161Z,89.36
2022-11-27T03:42:29.615Z,89.94
2022-11-27T03:45:05.228Z,90.61
2022-11-27T03:47:43.997Z,92.11
2022-11-27T03:50:19.821Z,93.27
2022-11-27T03:53:16.294Z,92.60
2022-11-27T03:55:48.213Z,91.58
2022-11-27T03:58:34.876Z,91.67
2022-11-27T04:01:08.839Z,90.98
2022-11-27T04:03:36.645Z,90.29
2022-11-27T04:06:08.042Z,90.14
2022-11-27T04:08:37.714Z,90.75
2022-11-27T04:11:04.420Z,90.79
2022-11-27T04:13:30.911Z,91.56
2022-11-27T04:16:03.594Z,90.89
2022-11-27T04:18:30.552Z,92.29
2022-11-27T04:20:59.596Z,92.50
2022-11-27T04:23:28.675Z,92.55
2022-11-27T04:25:55.344Z,91.45
2022-11-27T04:28:21.970Z,91.00
2022-11-27T04:30:54.912Z,90.90
2022-11-27T04:33:25.759Z,90.47
2022-11-27T04:35:52.795Z,90.38
2022-11-27T04:38:22.067Z,90.19
2022-11-27T04:40:48.484Z,90.90
2022-11-27T04:43:20.247Z,91.43
2022-11-27T04:45:46.923Z,91.37
2022-11-27T04:48:13.468Z,91.41
2022-11-27T04:50:39.955Z,91.12
2022-11-27T04:53:06.468Z,90.50
2022-11-27T04:55:36.022Z,90.91
2022-11-27T04:58:02.588Z,90.79
2022-11-27T05:00:31.356Z,90.14
2022-11-27T05:02:57.857Z,91.46
2022-11-27T05:05:27.410Z,91.89
2022-11-27T05:07:54.004Z,92.01
2022-11-27T05:10:20.683Z,90.86
2022-11-27T05:12:47.296Z,90.14
2022-11-27T05:15:16.912Z,90.29
2022-11-27T05:17:43.421Z,90.50
2022-11-27T05:20:10.586Z,90.58
2022-11-27T05:22:39.421Z,91.33
2022-11-27T05:25:09.194Z,92.59
2022-11-27T05:27:38.170Z,94.51
2022-11-27T05:30:05.383Z,95.34
2022-11-27T05:32:31.861Z,95.40
2022-11-27T05:35:00.727Z,95.64
2022-11-27T05:37:27.320Z,94.62
2022-11-27T05:39:58.360Z,94.12
2022-11-27T05:42:24.837Z,93.62
2022-11-27T05:44:56.705Z,93.12
2022-11-27T05:47:26.851Z,93.10
2022-11-27T05:49:55.888Z,93.06
2022-11-27T05:52:22.424Z,92.53
2022-11-27T05:54:48.956Z,93.16
2022-11-27T05:57:15.493Z,92.59
2022-11-27T05:59:44.344Z,92.09
2022-11-27T06:02:21.608Z,92.00
2022-11-27T06:04:50.507Z,92.52
2022-11-27T06:07:19.576Z,92.55
2022-11-27T06:09:48.437Z,92.57
2022-11-27T06:12:17.444Z,92.06
2022-11-27T06:14:43.931Z,91.57
2022-11-27T06:17:15.677Z,90.71
2022-11-27T06:19:44.399Z,90.91
2022-11-27T06:22:11.152Z,90.63
2022-11-27T06:24:37.854Z,90.87
2022-11-27T06:27:06.787Z,90.22
2022-11-27T06:29:33.405Z,90.50
2022-11-27T06:31:59.994Z,90.79
2022-11-27T06:34:28.732Z,90.12
2022-11-27T06:36:55.229Z,90.64
2022-11-27T06:39:26.756Z,90.85
2022-11-27T06:41:55.665Z,91.00
2022-11-27T06:44:22.342Z,91.04
2022-11-27T06:46:48.849Z,90.62
2022-11-27T06:49:15.416Z,90.67
2022-11-27T06:51:42.043Z,90.61
2022-11-27T06:54:08.586Z,90.71
2022-11-27T06:56:35.154Z,90.69
2022-11-27T06:59:02.256Z,90.58
2022-11-27T07:01:34.347Z,90.61
2022-11-27T07:04:00.974Z,91.32
2022-11-27T07:06:28.411Z,91.04
2022-11-27T07:08:55.842Z,91.72
2022-11-27T07:11:32.044Z,93.31
2022-11-27T07:14:02.631Z,92.82
2022-11-27T07:16:36.473Z,93.21
2022-11-27T07:19:08.033Z,92.92
2022-11-27T07:21:37.319Z,93.72
2022-11-27T07:24:03.813Z,93.19
2022-11-27T07:26:32.994Z,93.25
2022-11-27T07:29:01.911Z,93.55
2022-11-27T07:31:31.183Z,93.30
2022-11-27T07:33:57.713Z,93.35
2022-11-27T07:36:29.839Z,93.30
2022-11-27T07:38:56.730Z,93.50
2022-11-27T07:41:30.623Z,93.36
2022-11-27T07:44:00.240Z,93.15
2022-11-27T07:46:26.830Z,93.22
2022-11-27T07:48:53.401Z,93.08
2022-11-27T07:51:23.994Z,93.35
2022-11-27T07:53:53.396Z,94.07
2022-11-27T07:56:20.689Z,95.56
2022-11-27T07:58:47.586Z,93.91
2022-11-27T08:01:17.080Z,94.70
2022-11-27T08:03:46.222Z,92.93
2022-11-27T08:06:26.889Z,92.12
2022-11-27T08:08:56.041Z,92.13
2022-11-27T08:11:31.473Z,91.52
2022-11-27T08:13:59.306Z,92.15
2022-11-27T08:16:26.072Z,91.47
2022-11-27T08:18:55.813Z,91.30
2022-11-27T08:21:25.550Z,91.52
2022-11-27T08:23:54.488Z,91.82
2022-11-27T08:26:21.343Z,91.30
2022-11-27T08:28:52.045Z,91.05
2022-11-27T08:31:20.760Z,91.43
2022-11-27T08:33:49.953Z,91.72
2022-11-27T08:36:18.307Z,92.04
2022-11-27T08:38:48.174Z,90.86
2022-11-27T08:41:14.960Z,91.10
2022-11-27T08:43:44.032Z,91.60
2022-11-27T08:46:11.342Z,91.84
2022-11-27T08:48:42.637Z,91.58
2022-11-27T08:51:12.120Z,91.57
2022-11-27T08:53:39.284Z,91.47
2022-11-27T08:56:20.816Z,91.43
2022-11-27T08:58:47.585Z,92.08
2022-11-27T09:01:16.920Z,92.20
2022-11-27T09:03:44.002Z,90.73
2022-11-27T09:06:14.957Z,90.76
2022-11-27T09:08:45.287Z,91.88
2022-11-27T09:11:13.652Z,91.38
2022-11-27T09:13:42.750Z,90.91
2022-11-27T09:16:12.287Z,90.68
2022-11-27T09:18:45.975Z,89.86
2022-11-27T09:21:13.935Z,89.75
2022-11-27T09:23:42.957Z,89.65
2022-11-27T09:26:16.762Z,90.35
2022-11-27T09:28:44.416Z,89.59
2022-11-27T09:31:15.133Z,89.13
2022-11-27T09:33:42.716Z,90.39
2022-11-27T09:36:18.404Z,90.13
2022-11-27T09:38:45.435Z,90.12
2022-11-27T09:41:11.882Z,88.97
2022-11-27T09:43:46.515Z,89.46
2022-11-27T09:46:21.587Z,89.39
2022-11-27T09:48:50.987Z,89.07
2022-11-27T09:51:29.725Z,90.12
2022-11-27T09:54:17.926Z,90.21
2022-11-27T09:56:51.030Z,90.23
2022-11-27T09:59:22.917Z,90.51
2022-11-27T10:01:51.326Z,90.32
2022-11-27T10:04:20.369Z,90.21
2022-11-27T10:07:21.059Z,90.16
2022-11-27T10:10:02.592Z,89.64
2022-11-27T10:12:43.746Z,89.54
2022-11-27T10:15:47.394Z,89.98
2022-11-27T10:18:28.349Z,89.51
2022-11-27T10:21:03.350Z,89.75
2022-11-27T10:24:07.589Z,89.29
2022-11-27T10:26:45.645Z,90.04
2022-11-27T10:29:33.754Z,90.33
2022-11-27T10:32:54.644Z,90.67
2022-11-27T10:35:21.368Z,90.36
2022-11-27T10:38:07.190Z,90.07
2022-11-27T10:40:47.866Z,89.82
2022-11-27T10:43:23.867Z,89.43
2022-11-27T10:45:53.317Z,89.90
2022-11-27T10:48:20.593Z,89.15
2022-11-27T10:50:50.249Z,89.05
2022-11-27T10:53:19.444Z,89.37
2022-11-27T10:55:59.917Z,89.94
2022-11-27T10:58:43.118Z,89.95
2022-11-27T11:01:17.948Z,89.08
2022-11-27T11:03:50.356Z,89.73
2022-11-27T11:06:23.000Z,89.49
2022-11-27T11:09:17.139Z,89.58
2022-11-27T11:11:43.926Z,90.09
2022-11-27T11:14:30.115Z,90.11
2022-11-27T11:17:01.671Z,89.82
2022-11-27T11:19:32.639Z,89.97
2022-11-27T11:22:03.857Z,90.04
2022-11-27T11:24:32.859Z,90.32
2022-11-27T11:27:06.435Z,89.54
2022-11-27T11:29:37.685Z,89.58
2022-11-27T11:32:15.430Z,90.55
2022-11-27T11:34:45.669Z,90.21
2022-11-27T11:37:21.338Z,90.20
2022-11-27T11:39:58.119Z,90.44
2022-11-27T11:42:33.991Z,89.78
2022-11-27T11:45:14.903Z,89.59
2022-11-27T11:47:52.779Z,90.16
2022-11-27T11:50:33.474Z,90.48
2022-11-27T11:53:12.150Z,90.53
2022-11-27T11:56:06.781Z,89.80
2022-11-27T11:58:39.390Z,89.85
2022-11-27T12:01:27.726Z,89.92
2022-11-27T12:04:00.501Z,90.47
2022-11-27T12:06:48.386Z,90.87
2022-11-27T12:09:36.217Z,91.38
2022-11-27T12:12:27.263Z,91.05
2022-11-27T12:15:02.049Z,90.47
2022-11-27T12:17:47.423Z,90.75
2022-11-27T12:20:45.646Z,91.81
2022-11-27T12:23:59.298Z,90.60
2022-11-27T12:26:38.734Z,90.14
2022-11-27T12:29:27.309Z,90.54
2022-11-27T12:32:06.028Z,91.06
2022-11-27T12:34:47.031Z,89.36
2022-11-27T12:37:25.532Z,90.12
2022-11-27T12:39:57.949Z,88.73
2022-11-27T12:42:34.617Z,88.14
2022-11-27T12:45:17.697Z,87.70
2022-11-27T12:47:53.139Z,87.92
2022-11-27T12:50:44.811Z,88.29
2022-11-27T12:53:43.327Z,87.78
2022-11-27T12:56:16.849Z,88.20
2022-11-27T12:58:50.546Z,89.47
2022-11-27T13:01:33.989Z,88.59
2022-11-27T13:04:52.018Z,88.48
2022-11-27T13:07:31.112Z,87.38
2022-11-27T13:10:21.615Z,87.70
2022-11-27T13:13:08.991Z,87.38
2022-11-27T13:15:44.226Z,87.26
2022-11-27T13:18:31.753Z,88.92
2022-11-27T13:21:04.766Z,87.04
2022-11-27T13:23:35.252Z,86.29
2022-11-27T13:26:06.175Z,85.49
2022-11-27T13:28:46.119Z,85.37
2022-11-27T13:31:39.499Z,85.61
2022-11-27T13:34:18.359Z,86.02
2022-11-27T13:36:54.862Z,85.65
2022-11-27T13:39:25.212Z,86.26
2022-11-27T13:42:06.896Z,86.55
2022-11-27T13:44:37.969Z,86.50
2022-11-27T13:47:17.407Z,86.13
2022-11-27T13:49:57.733Z,85.99
2022-11-27T13:52:26.843Z,86.08
2022-11-27T13:54:53.267Z,85.82
2022-11-27T13:57:21.329Z,85.90
2022-11-27T14:00:16.361Z,85.66
2022-11-27T14:02:48.201Z,86.21
2022-11-27T14:05:19.024Z,87.46
2022-11-27T14:07:55.013Z,86.78
2022-11-27T14:10:27.943Z,86.21
2022-11-27T14:13:09.702Z,86.29
2022-11-27T14:15:39.431Z,87.09
2022-11-27T14:18:19.393Z,87.74
2022-11-27T14:21:02.231Z,88.30
2022-11-27T14:23:33.935Z,90.23
2022-11-27T14:26:18.791Z,88.88
2022-11-27T14:28:51.954Z,88.67
2022-11-27T14:31:28.338Z,89.01
2022-11-27T14:34:14.857Z,89.26
2022-11-27T14:36:44.421Z,89.30
2022-11-27T14:39:31.320Z,89.14
2022-11-27T14:42:02.380Z,89.87
2022-11-27T14:44:32.967Z,89.88
2022-11-27T14:47:03.614Z,89.85
2022-11-27T14:49:31.598Z,89.44
2022-11-27T14:52:05.797Z,88.81
2022-11-27T14:54:38.213Z,89.48
2022-11-27T14:57:06.892Z,89.91
2022-11-27T14:59:35.622Z,89.39
2022-11-27T15:02:05.935Z,88.61
2022-11-27T15:04:43.612Z,88.63
2022-11-27T15:07:16.046Z,88.54
2022-11-27T15:09:51.732Z,88.83
2022-11-27T15:12:48.356Z,88.81
2022-11-27T15:15:27.879Z,88.63
2022-11-27T15:17:58.312Z,89.39
2022-11-27T15:20:41.955Z,89.38
2022-11-27T15:23:21.900Z,88.85
2022-11-27T15:26:14.628Z,88.16
2022-11-27T15:28:57.155Z,87.88
2022-11-27T15:31:31.616Z,88.09
2022-11-27T15:34:24.621Z,88.82
2022-11-27T15:37:03.830Z,87.88
2022-11-27T15:39:46.382Z,87.23
2022-11-27T15:42:17.617Z,88.35
2022-11-27T15:44:47.805Z,87.69
2022-11-27T15:47:28.131Z,87.50
2022-11-27T15:49:58.011Z,87.97
2022-11-27T15:52:27.233Z,88.11
2022-11-27T15:54:53.797Z,88.38
2022-11-27T15:57:20.291Z,88.53
2022-11-27T15:59:49.830Z,89.05
2022-11-27T16:02:18.823Z,88.70
2022-11-27T16:04:47.505Z,88.53
2022-11-27T16:07:14.139Z,89.10
2022-11-27T16:09:42.959Z,88.72
2022-11-27T16:12:09.466Z,88.33
2022-11-27T16:14:38.937Z,89.04
2022-11-27T16:17:05.690Z,89.25
2022-11-27T16:19:34.752Z,89.66
2022-11-27T16:22:03.561Z,89.48
2022-11-27T16:24:30.146Z,88.67
2022-11-27T16:26:56.632Z,89.40
2022-11-27T16:29:23.102Z,89.54
2022-11-27T16:31:51.973Z,89.20
2022-11-27T16:34:18.672Z,88.79
2022-11-27T16:36:45.200Z,88.66
2022-11-27T16:39:14.515Z,87.87
2022-11-27T16:41:41.136Z,88.22
2022-11-27T16:44:14.551Z,88.02
2022-11-27T16:46:43.790Z,88.53
2022-11-27T16:49:13.275Z,88.53
2022-11-27T16:51:40.919Z,88.32
2022-11-27T16:54:10.387Z,88.11
2022-11-27T16:56:38.642Z,87.78
2022-11-27T16:59:11.035Z,88.70
2022-11-27T17:01:41.663Z,89.60
2022-11-27T17:04:11.368Z,88.68
2022-11-27T17:06:43.321Z,89.37
2022-11-27T17:09:09.869Z,89.62
2022-11-27T17:11:41.587Z,89.96
2022-11-27T17:14:14.380Z,89.98
2022-11-27T17:16:43.701Z,89.44
2022-11-27T17:19:15.577Z,89.69
2022-11-27T17:21:44.376Z,88.93
2022-11-27T17:24:15.388Z,88.57
2022-11-27T17:26:43.509Z,88.87
2022-11-27T17:29:11.658Z,87.67
2022-11-27T17:31:38.976Z,87.54
2022-11-27T17:34:06.877Z,87.29
2022-11-27T17:36:37.253Z,87.77
2022-11-27T17:39:05.908Z,88.54
2022-11-27T17:41:35.321Z,89.35
2022-11-27T17:44:05.507Z,89.33
2022-11-27T17:46:32.840Z,88.65
2022-11-27T17:49:02.772Z,88.55
2022-11-27T17:51:34.405Z,89.26
2022-11-27T17:54:05.408Z,88.51
2022-11-27T17:56:36.277Z,88.76
2022-11-27T17:59:04.159Z,88.65
2022-11-27T18:01:31.242Z,89.25
2022-11-27T18:04:00.540Z,89.27
2022-11-27T18:06:27.199Z,89.13
2022-11-27T18:08:58.431Z,89.48
2022-11-27T18:11:27.815Z,89.77
2022-11-27T18:13:54.408Z,90.08
2022-11-27T18:16:24.742Z,90.84
2022-11-27T18:18:51.943Z,90.33
2022-11-27T18:21:20.670Z,90.92
2022-11-27T18:29:22.270Z,91.58
2022-11-27T18:31:50.293Z,91.53
2022-11-27T18:34:16.994Z,91.79
2022-11-27T18:36:43.528Z,92.33
2022-11-27T18:39:13.567Z,92.07
2022-11-27T18:41:40.792Z,92.76
2022-11-27T18:44:07.428Z,92.72
2022-11-27T18:46:34.047Z,92.34
2022-11-27T18:49:03.192Z,92.39
2022-11-27T18:51:29.720Z,92.50
2022-11-27T18:53:56.628Z,92.08
2022-11-27T18:56:29.578Z,91.86
2022-11-27T18:58:56.762Z,91.81
2022-11-27T19:01:26.983Z,92.24
2022-11-27T19:03:54.448Z,92.64
2022-11-27T19:06:26.343Z,92.74
2022-11-27T19:08:55.077Z,92.26
2022-11-27T19:11:25.410Z,92.97
2022-11-27T19:13:54.597Z,92.34
2022-11-27T19:16:27.230Z,92.36
2022-11-27T19:18:56.413Z,92.07
2022-11-27T19:21:25.320Z,92.30
2022-11-27T19:23:52.317Z,92.05
2022-11-27T19:26:23.822Z,92.26
2022-11-27T19:28:58.693Z,91.72
2022-11-27T19:31:30.388Z,92.19
2022-11-27T19:34:01.853Z,92.06
2022-11-27T19:36:31.985Z,91.86
2022-11-27T19:39:04.003Z,92.11
2022-11-27T19:41:31.071Z,91.49
2022-11-27T19:43:57.625Z,91.57
2022-11-27T19:46:34.972Z,91.27
2022-11-27T19:49:12.751Z,90.96
2022-11-27T19:51:41.892Z,91.45
2022-11-27T19:54:11.450Z,90.96
2022-11-27T19:56:42.243Z,91.10
2022-11-27T19:59:12.583Z,90.70
2022-11-27T20:01:42.298Z,90.33
2022-11-27T20:04:15.310Z,90.47
2022-11-27T20:06:41.970Z,90.00
2022-11-27T20:09:08.562Z,91.00
2022-11-27T20:11:40.525Z,90.69
2022-11-27T20:14:11.858Z,90.01
2022-11-27T20:16:40.966Z,89.83
2022-11-27T20:19:07.636Z,90.96
2022-11-27T20:21:36.846Z,90.87
2022-11-27T20:24:03.795Z,89.70
2022-11-27T20:26:32.624Z,89.18
2022-11-27T20:29:01.480Z,89.84
2022-11-27T20:31:30.606Z,90.05
2022-11-27T20:34:00.781Z,89.61
2022-11-27T20:36:28.863Z,89.02
2022-11-27T20:38:58.262Z,88.58
2022-11-27T20:41:24.888Z,88.88
2022-11-27T20:43:56.534Z,89.03
2022-11-27T20:46:26.346Z,89.54
2022-11-27T20:48:54.304Z,89.34
2022-11-27T20:51:25.190Z,89.60
2022-11-27T20:53:53.923Z,88.59
2022-11-27T20:56:23.721Z,88.68
2022-11-27T20:58:53.294Z,88.88
2022-11-27T21:01:22.916Z,88.45
2022-11-27T21:03:51.336Z,88.94
2022-11-27T21:06:20.772Z,88.70
2022-11-27T21:08:52.929Z,88.56
2022-11-27T21:11:25.479Z,89.00
2022-11-27T21:14:04.557Z,88.65
2022-11-27T21:16:36.045Z,89.50
2022-11-27T21:19:10.720Z,89.16
2022-11-27T21:21:37.231Z,89.13
2022-11-27T21:24:03.931Z,89.54
2022-11-27T21:26:30.588Z,89.07
2022-11-27T21:28:57.173Z,88.72
2022-11-27T21:31:25.926Z,89.20
2022-11-27T21:33:54.876Z,88.29
2022-11-27T21:36:24.491Z,87.97
2022-11-27T21:38:51.115Z,88.45
2022-11-27T21:41:18.086Z,87.53
2022-11-27T21:43:45.562Z,87.34
2022-11-27T21:46:17.037Z,88.21
2022-11-27T21:48:45.362Z,88.92
2022-11-27T21:51:15.348Z,88.71
2022-11-27T21:53:46.138Z,88.47
2022-11-27T21:56:18.615Z,88.66
2022-11-27T21:58:45.639Z,88.58
2022-11-27T22:01:16.349Z,87.90
2022-11-27T22:03:43.594Z,87.29
2022-11-27T22:06:13.000Z,87.87
2022-11-27T22:08:40.735Z,88.50
2022-11-27T22:11:15.572Z,88.24
2022-11-27T22:13:42.329Z,87.67
2022-11-27T22:16:13.713Z,87.84
2022-11-27T22:18:43.247Z,88.05
2022-11-27T22:21:11.550Z,88.04
2022-11-27T22:23:41.374Z,87.72
2022-11-27T22:26:16.971Z,87.40
2022-11-27T22:28:47.345Z,86.50
2022-11-27T22:31:26.126Z,87.29
2022-11-27T22:33:58.635Z,86.93
2022-11-27T22:36:31.345Z,87.35
2022-11-27T22:39:03.702Z,88.59
2022-11-27T22:41:32.354Z,88.56
2022-11-27T22:44:02.563Z,88.71
2022-11-27T22:46:35.462Z,88.21
2022-11-27T22:49:05.464Z,88.97
2022-11-27T22:51:37.079Z,89.61
2022-11-27T22:54:10.302Z,88.96
2022-11-27T22:56:39.557Z,88.22
2022-11-27T23:01:52.857Z,87.97
2022-11-27T23:04:19.426Z,87.53
2022-11-27T23:06:48.682Z,87.51
2022-11-27T23:09:18.033Z,87.64
2022-11-27T23:11:44.778Z,87.24
2022-11-27T23:14:11.437Z,87.91
2022-11-27T23:16:40.310Z,87.92
2022-11-27T23:19:07.499Z,87.80
2022-11-27T23:21:37.498Z,89.04
2022-11-27T23:24:11.941Z,89.42
2022-11-27T23:26:38.503Z,90.19
2022-11-27T23:29:10.406Z,90.03
2022-11-27T23:31:39.346Z,89.57
2022-11-27T23:34:08.963Z,89.59
2022-11-27T23:36:36.316Z,90.08
2022-11-27T23:39:07.502Z,89.70
2022-11-27T23:41:34.007Z,89.79
2022-11-27T23:44:01.633Z,90.12
2022-11-27T23:46:29.940Z,90.25
2022-11-27T23:49:02.929Z,91.58
2022-11-27T23:51:33.752Z,92.63
2022-11-27T23:54:01.211Z,92.92
2022-11-27T23:56:31.116Z,92.64
2022-11-27T23:58:58.299Z,91.63
